Bridgeport, PA (19405)

3:14 PM EST on January 19, 2017 (GMT -0500)
Upper Merion Area SD | | Change Station

Elev 131 ft 40.10 °N, 75.38 °W | Updated 15 minutes ago

Overcast
Overcast
46.6 °F
Feels Like 47 °F
N
1.8
Wind Variable Wind from North
Gusts 4.9 mph

Today
High -- | Low -- °F
--% Chance of Precip.
Yesterday
High -- | Low -- °F
Precip. -- in
Pressure 30.01 in
Visibility 10.0 miles
Clouds Overcast 2200 ft
Windchill 47 °F
Dew Point 31 °F
Humidity 55%
Rainfall 0.00 in
Snow Depth Not available.
7:19 AM 5:05 PM
Waning Gibbous, 51% visible
METAR KLOM 191955Z AUTO 00000KT 10SM OVC022 06/01 A3001 RMK AO1
Pressure 30.01 in
Visibility 10.0 miles
Clouds Overcast 2200 ft
Windchill 47 °F
Dew Point 31 °F
Humidity 55%
Rainfall 0.00 in
Snow Depth Not available.
7:19 AM 5:05 PM
Waning Gibbous, 51% visible
METAR KLOM 191955Z AUTO 00000KT 10SM OVC022 06/01 A3001 RMK AO1

Get Your Daily Forecast Email!

Thanks for signing up!

Be on the lookout for a verification email in your inbox.

You'll start receiving the daily forecast at 8 AM.

×

10-Day Weather Forecast

Almanac

Astronomy

Jan. 19, 2017 Rise Set
Actual Time
Civil Twilight
Nautical Twilight
Astronomical Twilight
Moon
Length of Visible Light
Length of Day
Tomorrow will be .
, % of the Moon is Illuminated

Today's Extremes

State Highs State Lows

Community

WunderPhotos

Upload Photos

1,962,540 photos uploaded!

WunderBlog® & News

Nearby

Air Quality

  Air Quality AQ Index Pollutant
Not available.

Snow Depth

Station Depth Elevation

Earthquake Activity

City Distance Mag. Time & Date
Minimum magnitude displayed is 2.5.

Coastal Water Temperatures

Place Temperature

Stations

Nearby Weather Stations

Station Location Temp. Windchill Dew Point Humidity Wind Precip. Elev Updated Type
                   

Watches & Warnings

There are currently no watches in effect.